Marshall Army Air Field
KFRI : now visible

Airfield :











YOU CAN JOIN US ON...

 
LOGIN :

Register | Disclaimer

   EN    FR    IT 

 









Legend :    VFR   Marginal VFR   IFR   Intensive IFR   Very Intensive IFR
Visi :
Ceiling :
>= 8 km
>= 3000ft
5 to 8 km
1000 to 3000 ft
1500m to 5 km
500 to 1000 ft
800 to 1500m
200 to 500 ft
< 800m
< 200 ft
Symbols :   Thunderstorms  Fog  Heavy snow  Heavy precipitations  Wind > 20 kt






- Airport Elevation : 1065 ft


KFRI - Marshall Army Air Field

CURRENT METAR :
  • 181855Z 16016G23KT 10SM BKN045 BKN055 30/20 A2977 RMK AO2A PK WND 18031/1757 SLP067 T02970202 PNO $

EXPIRED METARs :
  • 181755Z 16019G29KT 10SM SCT046 BKN200 31/21 A2975 RMK AO2A PK WND 16030/00 SLP060 T03120210 10314 20262 50008 PNO $
  • 181656Z 16020G30KT 10SM FEW045 SCT100 30/21 A2973 RMK AO2A PK WND 15030/49 SLP053 T03030214 PNO $
  • 181556Z 16014G23KT 10SM OVC042 28/22 A2974 RMK AO2A PK WND 17029/01 SLP058 T02810216 PNO $
  • 181458Z 17020G29KT 10SM VCTS OVC034 28/22 A2973 RMK AO2A PK WND 18029/48 SLP054 T02830215 52015 PNO $
  • 181358Z 17018G24KT 10SM OVC034 27/22 A2972 RMK SLP051 T02710218 PNO $

TAF TAF KFRI
Valid from the 17 at 20:00 until the 19 at 02:00 UTC


172000Z 1720/1902 17015G25KT 9999 SCT050 QNH2963INS
BECMG 1723/1724 16015KT 9999 SCT060 QNH2964INS
BECMG 1810/1811 17015G25KT 9999 BKN035 QNH2969INS
BECMG 1814/1815 18020G30KT 9999 BKN025 QNH2971INS
BECMG 1821/1822 16018KT 9999 SCT050 QNH2968INS TX32/1721Z TN23/1809Z
KZKC FIR / North America



MET'MAP, your aeronautical weather chart ! - Copyright ORBIFLY December 2007 - Disclaimer

ORBIFLY MET'MAP TEAM :

Programming & Development : Alexandra Zaïnal
Original concept : Baudouin d'Aumeries
Technical & hardware support : Manuel Goepfert
Assistance : Marc-Olivier Méhu




SOURCES & CREDITS :

   NOAA       Earth
Advisory